createdAt,value
2019-02-18T00:00:51.956Z,96035.42
2019-02-18T00:03:21.033Z,96024.39
2019-02-18T00:05:50.106Z,96028.16
2019-02-18T00:08:19.176Z,96026.79
2019-02-18T00:10:48.211Z,96023.32
2019-02-18T00:13:20.154Z,96030.05
2019-02-18T00:15:49.220Z,96031.56
2019-02-18T00:20:54.912Z,96027.86
2019-02-18T00:23:25.058Z,96028.03
2019-02-18T00:25:54.594Z,96026.90
2019-02-18T00:31:02.398Z,96021.63
2019-02-18T00:33:37.607Z,96025.58
2019-02-18T00:36:07.138Z,96019.34
2019-02-18T00:38:37.110Z,96027.09
2019-02-18T00:41:06.151Z,96022.11
2019-02-18T00:43:47.607Z,96020.40
2019-02-18T00:46:17.158Z,96024.92
2019-02-18T00:48:50.304Z,96026.17
2019-02-18T00:51:19.350Z,96023.55
2019-02-18T00:53:50.427Z,96019.18
2019-02-18T00:56:19.571Z,96021.22
2019-02-18T00:58:57.222Z,96017.10
2019-02-18T01:01:28.276Z,96019.06
2019-02-18T01:03:57.330Z,96019.91
2019-02-18T01:06:30.395Z,96015.02
2019-02-18T01:11:38.253Z,96021.11
2019-02-18T01:14:07.446Z,96017.94
2019-02-18T01:16:51.286Z,96013.75
2019-02-18T01:19:20.400Z,96012.66
2019-02-18T01:21:56.574Z,96015.37
2019-02-18T01:24:26.135Z,96006.45
2019-02-18T01:26:57.179Z,96004.22
2019-02-18T01:29:28.191Z,96001.06
2019-02-18T01:32:03.536Z,95996.83
2019-02-18T01:34:34.591Z,95996.77
2019-02-18T01:37:09.843Z,95998.76
2019-02-18T01:39:39.828Z,95998.53
2019-02-18T01:42:08.873Z,95996.02
2019-02-18T01:44:40.585Z,95996.84
2019-02-18T01:47:09.685Z,95995.91
2019-02-18T01:52:15.419Z,95991.13
2019-02-18T01:54:44.507Z,95986.63
2019-02-18T01:57:13.913Z,95983.85
2019-02-18T01:59:44.094Z,95982.44
2019-02-18T02:02:13.151Z,95979.84
2019-02-18T02:07:22.061Z,95977.42
2019-02-18T02:09:59.109Z,95977.58
2019-02-18T02:12:30.158Z,95975.47
2019-02-18T02:14:59.213Z,95973.14
2019-02-18T02:17:29.294Z,95969.75
2019-02-18T02:20:02.669Z,95969.58
2019-02-18T02:22:31.735Z,95963.17
2019-02-18T02:25:00.800Z,95960.12
2019-02-18T02:27:31.885Z,95960.93
2019-02-18T02:30:01.449Z,95959.70
2019-02-18T02:35:07.265Z,95960.51
2019-02-18T02:37:36.333Z,95951.46
2019-02-18T02:40:05.385Z,95951.22
2019-02-18T02:45:17.543Z,95938.70
2019-02-18T02:47:46.588Z,95942.75
2019-02-18T02:50:16.130Z,95950.41
2019-02-18T02:52:45.238Z,95948.08
2019-02-18T02:55:14.312Z,95950.56
2019-02-18T03:00:23.007Z,95945.25
2019-02-18T03:03:01.071Z,95943.39
2019-02-18T03:05:38.566Z,95945.55
2019-02-18T03:08:19.931Z,95945.46
2019-02-18T03:14:08.536Z,95942.67
2019-02-18T03:16:40.935Z,95943.73
2019-02-18T03:19:09.991Z,95947.66
2019-02-18T03:21:40.354Z,95947.43
2019-02-18T03:24:09.435Z,95950.70
2019-02-18T03:26:39.419Z,95949.42
2019-02-18T03:32:14.796Z,95949.05
2019-02-18T03:34:44.584Z,95952.69
2019-02-18T03:37:24.154Z,95949.61
2019-02-18T03:39:54.161Z,95952.03
2019-02-18T03:45:01.497Z,95956.06
2019-02-18T03:50:10.411Z,95950.62
2019-02-18T03:52:40.434Z,95953.19
2019-02-18T03:55:10.254Z,95948.07
2019-02-18T03:57:39.359Z,95955.53
2019-02-18T04:00:09.368Z,95953.84
2019-02-18T04:02:38.449Z,95954.88
2019-02-18T04:05:08.371Z,95948.67
2019-02-18T04:10:23.112Z,95949.86
2019-02-18T04:12:52.374Z,95948.92
2019-02-18T04:15:21.507Z,95942.50
2019-02-18T04:17:50.554Z,95941.93
2019-02-18T04:20:21.165Z,95938.57
2019-02-18T04:22:50.279Z,95939.77
2019-02-18T04:25:19.330Z,95937.22
2019-02-18T04:27:52.123Z,95943.02
2019-02-18T04:30:21.218Z,95935.80
2019-02-18T04:32:53.606Z,95934.78
2019-02-18T04:35:26.037Z,95930.25
2019-02-18T04:37:55.103Z,95924.84
2019-02-18T04:43:01.310Z,95918.98
2019-02-18T04:48:11.070Z,95927.61
2019-02-18T04:50:45.604Z,95925.45
2019-02-18T04:53:15.865Z,95925.84
2019-02-18T04:55:45.958Z,95924.55
2019-02-18T04:58:15.969Z,95925.88
2019-02-18T05:00:45.039Z,95927.34
2019-02-18T05:03:22.650Z,95929.61
2019-02-18T05:05:52.213Z,95921.93
2019-02-18T05:08:21.290Z,95920.73
2019-02-18T05:10:50.369Z,95924.47
2019-02-18T05:13:19.951Z,95917.65
2019-02-18T05:15:54.175Z,95922.44
2019-02-18T05:18:23.213Z,95922.16
2019-02-18T05:20:52.264Z,95920.50
2019-02-18T05:23:22.311Z,95923.37
2019-02-18T05:25:54.573Z,95924.09
2019-02-18T05:28:24.712Z,95925.02
2019-02-18T05:30:53.795Z,95922.97
2019-02-18T05:33:22.991Z,95926.73
2019-02-18T05:35:52.065Z,95927.38
2019-02-18T05:38:23.515Z,95928.84
2019-02-18T05:40:52.608Z,95924.22
2019-02-18T05:43:21.669Z,95926.30
2019-02-18T05:45:51.221Z,95923.25
2019-02-18T05:48:22.865Z,95928.66
2019-02-18T05:50:55.652Z,95927.23
2019-02-18T05:53:26.756Z,95929.16
2019-02-18T05:55:55.827Z,95925.78
2019-02-18T05:58:30.377Z,95926.27
2019-02-18T06:00:59.413Z,95928.11
2019-02-18T06:03:28.463Z,95920.59
2019-02-18T06:06:06.819Z,95919.91
2019-02-18T06:08:35.891Z,95917.98
2019-02-18T06:11:07.462Z,95920.75
2019-02-18T06:16:18.694Z,95922.45
2019-02-18T06:21:28.072Z,95934.60
2019-02-18T06:24:01.815Z,95933.91
2019-02-18T06:26:30.888Z,95933.89
2019-02-18T06:31:46.799Z,95941.81
2019-02-18T06:34:15.880Z,95944.23
2019-02-18T06:36:45.770Z,95945.23
2019-02-18T06:39:14.895Z,95947.45
2019-02-18T06:41:50.060Z,95954.61
2019-02-18T06:44:19.748Z,95956.73
2019-02-18T06:49:24.039Z,95958.12
2019-02-18T06:51:53.163Z,95958.42
2019-02-18T06:54:22.202Z,95959.77
2019-02-18T06:56:53.570Z,95962.86
2019-02-18T06:59:23.423Z,95962.55
2019-02-18T07:01:53.927Z,95964.11
2019-02-18T07:04:23.780Z,95964.69
2019-02-18T07:06:59.734Z,95963.72
2019-02-18T07:12:10.281Z,95961.19
2019-02-18T07:14:42.690Z,95962.72
2019-02-18T07:17:12.232Z,95966.62
2019-02-18T07:19:44.434Z,95968.61
2019-02-18T07:22:14.443Z,95966.16
2019-02-18T07:24:52.582Z,95962.29
2019-02-18T07:27:22.277Z,95958.89
2019-02-18T07:29:53.772Z,95958.69
2019-02-18T07:35:01.978Z,95951.23
2019-02-18T07:37:34.953Z,95949.78
2019-02-18T07:40:08.096Z,95942.98
2019-02-18T07:45:13.037Z,95930.50
2019-02-18T07:47:42.032Z,95931.41
2019-02-18T07:52:48.244Z,95928.64
2019-02-18T07:55:18.151Z,95930.14
2019-02-18T07:57:47.220Z,95924.56
2019-02-18T08:00:16.259Z,95922.86
2019-02-18T08:02:46.808Z,95923.47
2019-02-18T08:05:15.891Z,95924.09
2019-02-18T08:07:49.707Z,95922.73
2019-02-18T08:10:30.937Z,95923.52
2019-02-18T08:13:00.235Z,95920.09
2019-02-18T08:15:31.507Z,95916.46
2019-02-18T08:18:02.579Z,95918.63
2019-02-18T08:20:31.643Z,95914.73
2019-02-18T08:23:00.726Z,95912.59
2019-02-18T08:25:34.384Z,95916.44
2019-02-18T08:28:04.893Z,95914.83
2019-02-18T08:30:33.946Z,95916.75
2019-02-18T08:33:03.044Z,95915.08
2019-02-18T08:35:33.060Z,95918.23
2019-02-18T08:38:02.158Z,95915.70
2019-02-18T08:40:31.693Z,95918.70
2019-02-18T08:45:37.447Z,95913.98
2019-02-18T08:48:07.840Z,95916.65
2019-02-18T08:50:36.916Z,95912.12
2019-02-18T08:53:16.929Z,95912.67
2019-02-18T08:55:45.968Z,95909.70
2019-02-18T09:01:01.985Z,95910.61
2019-02-18T09:05:59.718Z,95909.59
2019-02-18T09:11:04.563Z,95904.34
2019-02-18T09:13:34.955Z,95902.72
2019-02-18T09:16:08.011Z,95896.92
2019-02-18T09:18:37.056Z,95894.62
2019-02-18T09:21:28.637Z,95893.81
2019-02-18T09:23:57.720Z,95892.03
2019-02-18T09:26:27.554Z,95886.84
2019-02-18T09:31:37.395Z,95885.47
2019-02-18T09:34:06.472Z,95883.31
2019-02-18T09:36:35.529Z,95882.81
2019-02-18T09:39:05.224Z,95882.02
2019-02-18T09:41:34.350Z,95879.21
2019-02-18T09:44:03.388Z,95885.69
2019-02-18T09:49:08.216Z,95880.02
2019-02-18T09:51:37.270Z,95878.19
2019-02-18T09:54:06.451Z,95882.46
2019-02-18T09:56:37.003Z,95876.08
2019-02-18T09:59:08.172Z,95871.48
2019-02-18T10:01:37.271Z,95869.16
2019-02-18T10:06:43.118Z,95872.00
2019-02-18T10:11:48.600Z,95864.56
2019-02-18T10:14:18.648Z,95868.00
2019-02-18T10:16:47.698Z,95873.03
2019-02-18T10:19:17.426Z,95879.24
2019-02-18T10:21:46.489Z,95872.54
2019-02-18T10:24:15.563Z,95870.90
2019-02-18T10:26:44.723Z,95866.26
2019-02-18T10:29:14.788Z,95866.48
2019-02-18T10:31:44.798Z,95864.20
2019-02-18T10:34:13.913Z,95863.73
2019-02-18T10:36:42.966Z,95858.40
2019-02-18T10:39:12.015Z,95865.84
2019-02-18T10:41:41.072Z,95854.59
2019-02-18T10:44:11.459Z,95844.38
2019-02-18T10:46:40.760Z,95840.47
2019-02-18T10:49:19.311Z,95831.06
2019-02-18T10:54:14.524Z,95823.28
2019-02-18T10:59:22.356Z,95821.78
2019-02-18T11:01:51.433Z,95813.30
2019-02-18T11:04:20.936Z,95814.23
2019-02-18T11:06:51.041Z,95805.23
2019-02-18T11:09:20.109Z,95796.58
2019-02-18T11:11:49.228Z,95793.33
2019-02-18T11:14:18.232Z,95795.45
2019-02-18T11:16:47.708Z,95787.11
2019-02-18T11:19:17.682Z,95788.38
2019-02-18T11:24:22.291Z,95782.80
2019-02-18T11:26:51.429Z,95781.80
2019-02-18T11:29:21.558Z,95779.45
2019-02-18T11:31:50.616Z,95767.27
2019-02-18T11:34:20.652Z,95760.45
2019-02-18T11:36:50.247Z,95751.22
2019-02-18T11:39:20.284Z,95749.88
2019-02-18T11:41:49.334Z,95749.72
2019-02-18T11:44:18.381Z,95736.29
2019-02-18T11:46:48.339Z,95731.98
2019-02-18T11:49:18.001Z,95732.88
2019-02-18T11:51:47.094Z,95729.92
2019-02-18T11:54:16.172Z,95727.69
2019-02-18T11:59:24.213Z,95718.87
2019-02-18T12:01:50.208Z,95713.39
2019-02-18T12:04:26.639Z,95709.59
2019-02-18T12:06:56.919Z,95706.06
2019-02-18T12:12:01.847Z,95699.12
2019-02-18T12:14:30.955Z,95697.70
2019-02-18T12:17:00.016Z,95693.73
2019-02-18T12:19:30.187Z,95692.86
2019-02-18T12:21:59.674Z,95687.72
2019-02-18T12:24:28.747Z,95684.34
2019-02-18T12:29:45.778Z,95678.27
2019-02-18T12:32:14.831Z,95672.95
2019-02-18T12:34:44.209Z,95671.88
2019-02-18T12:37:14.186Z,95667.24
2019-02-18T12:39:43.312Z,95660.23
2019-02-18T12:42:13.039Z,95654.05
2019-02-18T12:44:42.156Z,95648.22
2019-02-18T12:47:11.876Z,95643.96
2019-02-18T12:49:40.939Z,95637.24
2019-02-18T12:52:10.002Z,95639.66
2019-02-18T12:54:41.462Z,95634.78
2019-02-18T12:57:10.564Z,95633.70
2019-02-18T12:59:40.627Z,95630.04
2019-02-18T13:02:10.387Z,95625.15
2019-02-18T13:04:39.484Z,95625.19
2019-02-18T13:07:08.549Z,95616.30
2019-02-18T13:09:37.614Z,95615.46
2019-02-18T13:12:07.623Z,95613.48
2019-02-18T13:14:39.452Z,95609.48
2019-02-18T13:17:08.567Z,95607.70
2019-02-18T13:22:13.496Z,95602.32
2019-02-18T13:24:42.567Z,95602.78
2019-02-18T13:27:11.974Z,95594.07
2019-02-18T13:29:41.067Z,95591.47
2019-02-18T13:32:10.116Z,95588.87
2019-02-18T13:34:39.792Z,95588.94
2019-02-18T13:37:08.889Z,95591.37
2019-02-18T13:39:37.989Z,95595.02
2019-02-18T13:42:08.022Z,95589.69
2019-02-18T13:44:37.071Z,95592.25
2019-02-18T13:49:42.148Z,95587.41
2019-02-18T13:52:12.039Z,95587.37
2019-02-18T13:54:41.095Z,95587.13
2019-02-18T13:57:10.409Z,95590.02
2019-02-18T13:59:39.757Z,95584.83
2019-02-18T14:02:09.801Z,95581.41
2019-02-18T14:04:38.879Z,95576.56
2019-02-18T14:07:11.810Z,95580.32
2019-02-18T14:09:40.883Z,95572.69
2019-02-18T14:12:15.950Z,95581.42
2019-02-18T14:14:39.349Z,95572.52
2019-02-18T14:17:13.687Z,95571.22
2019-02-18T14:19:43.240Z,95570.66
2019-02-18T14:22:13.332Z,95574.27
2019-02-18T14:24:42.381Z,95573.41
2019-02-18T14:29:46.717Z,95576.38
2019-02-18T14:32:17.360Z,95568.61
2019-02-18T14:34:46.448Z,95567.21
2019-02-18T14:39:52.771Z,95566.91
2019-02-18T14:42:24.531Z,95566.60
2019-02-18T14:44:51.900Z,95564.17
2019-02-18T14:47:20.046Z,95556.86
2019-02-18T14:49:49.110Z,95557.37
2019-02-18T14:52:18.887Z,95558.59
2019-02-18T14:54:52.207Z,95560.11
2019-02-18T14:57:25.904Z,95560.21
2019-02-18T15:00:05.785Z,95554.05
2019-02-18T15:02:35.751Z,95556.61
2019-02-18T15:05:14.087Z,95548.14
2019-02-18T15:07:43.229Z,95553.04
2019-02-18T15:10:14.055Z,95555.99
2019-02-18T15:12:43.119Z,95546.03
2019-02-18T15:15:12.158Z,95546.05
2019-02-18T15:17:42.685Z,95546.55
2019-02-18T15:20:11.784Z,95541.69
2019-02-18T15:22:40.863Z,95544.69
2019-02-18T15:25:11.486Z,95539.36
2019-02-18T15:27:40.600Z,95541.06
2019-02-18T15:30:13.071Z,95539.94
2019-02-18T15:32:42.126Z,95540.31
2019-02-18T15:35:11.179Z,95542.98
2019-02-18T15:37:40.884Z,95545.52
2019-02-18T15:42:56.605Z,95541.34
2019-02-18T15:45:25.718Z,95542.34
2019-02-18T15:48:01.519Z,95538.59
2019-02-18T15:50:25.053Z,95542.52
2019-02-18T15:52:54.134Z,95538.01
2019-02-18T15:55:24.087Z,95541.55
2019-02-18T15:57:54.045Z,95540.19
2019-02-18T16:00:23.122Z,95536.13
2019-02-18T16:02:52.174Z,95535.80
2019-02-18T16:05:21.251Z,95535.34
2019-02-18T16:10:26.572Z,95533.73
2019-02-18T16:15:31.880Z,95536.70
2019-02-18T16:18:00.959Z,95540.22
2019-02-18T16:20:30.948Z,95544.43
2019-02-18T16:23:00.849Z,95540.25
2019-02-18T16:25:30.938Z,95540.13
2019-02-18T16:28:05.746Z,95541.09
2019-02-18T16:30:36.706Z,95537.83
2019-02-18T16:33:06.742Z,95543.69
2019-02-18T16:35:36.385Z,95545.45
2019-02-18T16:38:05.473Z,95546.58
2019-02-18T16:40:34.520Z,95546.72
2019-02-18T16:45:39.529Z,95545.54
2019-02-18T16:48:08.584Z,95543.44
2019-02-18T16:50:38.657Z,95552.36
2019-02-18T16:53:07.712Z,95551.89
2019-02-18T16:55:37.387Z,95552.70
2019-02-18T16:58:06.699Z,95551.17
2019-02-18T17:00:35.743Z,95552.42
2019-02-18T17:03:05.069Z,95556.70
2019-02-18T17:08:18.117Z,95556.11
2019-02-18T17:10:47.833Z,95557.27
2019-02-18T17:13:16.886Z,95562.84
2019-02-18T17:15:46.957Z,95560.77
2019-02-18T17:18:17.959Z,95558.86
2019-02-18T17:20:51.011Z,95564.98
2019-02-18T17:23:23.910Z,95561.18
2019-02-18T17:25:53.874Z,95560.62
2019-02-18T17:28:24.722Z,95562.31
2019-02-18T17:30:53.871Z,95560.13
2019-02-18T17:33:23.984Z,95561.08
2019-02-18T17:35:53.975Z,95559.13
2019-02-18T17:40:59.469Z,95558.67
2019-02-18T17:46:04.244Z,95560.28
2019-02-18T17:48:33.816Z,95563.78
2019-02-18T17:51:03.859Z,95558.19
2019-02-18T17:53:32.895Z,95558.00
2019-02-18T17:56:01.943Z,95556.58
2019-02-18T17:58:33.355Z,95557.09
2019-02-18T18:01:03.000Z,95564.27
2019-02-18T18:03:35.285Z,95561.78
2019-02-18T18:06:08.170Z,95567.94
2019-02-18T18:08:38.186Z,95563.20
2019-02-18T18:11:07.461Z,95569.63
2019-02-18T18:13:37.203Z,95570.61
2019-02-18T18:16:06.332Z,95568.16
2019-02-18T18:18:39.525Z,95565.87
2019-02-18T18:21:09.405Z,95562.59
2019-02-18T18:26:14.726Z,95559.39
2019-02-18T18:31:19.563Z,95561.28
2019-02-18T18:33:55.487Z,95558.41
2019-02-18T18:36:27.870Z,95560.73
2019-02-18T18:38:56.916Z,95556.83
2019-02-18T18:41:26.879Z,95556.17
2019-02-18T18:43:55.928Z,95557.30
2019-02-18T18:46:29.474Z,95554.13
2019-02-18T18:48:58.532Z,95553.11
2019-02-18T18:54:03.275Z,95553.77
2019-02-18T18:56:32.351Z,95554.43
2019-02-18T18:59:01.886Z,95559.08
2019-02-18T19:01:34.048Z,95557.84
2019-02-18T19:04:05.479Z,95556.58
2019-02-18T19:06:36.227Z,95559.73
2019-02-18T19:09:05.302Z,95561.75
2019-02-18T19:11:39.446Z,95564.28
2019-02-18T19:14:12.289Z,95563.80
2019-02-18T19:16:41.759Z,95566.47
2019-02-18T19:19:19.796Z,95563.98
2019-02-18T19:21:48.868Z,95562.72
2019-02-18T19:24:17.901Z,95563.56
2019-02-18T19:26:47.904Z,95564.91
2019-02-18T19:29:18.886Z,95562.31
2019-02-18T19:31:48.425Z,95557.56
2019-02-18T19:34:18.522Z,95557.20
2019-02-18T19:36:47.562Z,95560.50
2019-02-18T19:39:16.826Z,95557.52
2019-02-18T19:44:22.863Z,95549.44
2019-02-18T19:46:53.925Z,95557.89
2019-02-18T19:49:23.015Z,95558.39
2019-02-18T19:54:28.985Z,95563.05
2019-02-18T19:56:58.038Z,95562.27
2019-02-18T19:59:32.273Z,95564.30
2019-02-18T20:02:05.007Z,95564.49
2019-02-18T20:07:09.906Z,95572.12
2019-02-18T20:14:50.255Z,95568.00
2019-02-18T20:17:19.833Z,95571.86
2019-02-18T20:19:48.999Z,95572.38
2019-02-18T20:22:25.446Z,95578.44
2019-02-18T20:25:08.147Z,95572.42
2019-02-18T20:27:37.207Z,95568.13
2019-02-18T20:30:09.821Z,95567.29
2019-02-18T20:32:38.895Z,95562.63
2019-02-18T20:35:07.962Z,95562.83
2019-02-18T20:37:37.546Z,95566.67
2019-02-18T20:40:10.523Z,95565.96
2019-02-18T20:42:39.578Z,95567.39
2019-02-18T20:45:12.294Z,95567.31
2019-02-18T20:47:41.347Z,95570.49
2019-02-18T20:50:14.768Z,95571.65
2019-02-18T20:52:43.829Z,95571.82
2019-02-18T20:55:14.568Z,95570.05
2019-02-18T20:57:43.645Z,95577.47
2019-02-18T21:00:12.675Z,95576.21
2019-02-18T21:02:42.312Z,95576.16
2019-02-18T21:07:50.296Z,95579.66
2019-02-18T21:10:24.163Z,95573.78
2019-02-18T21:12:53.032Z,95576.52
2019-02-18T21:15:25.962Z,95574.41
2019-02-18T21:17:55.024Z,95572.53
2019-02-18T21:20:27.207Z,95577.93
2019-02-18T21:23:01.634Z,95574.16
2019-02-18T21:25:30.719Z,95579.17
2019-02-18T21:27:59.758Z,95581.94
2019-02-18T21:30:30.790Z,95577.06
2019-02-18T21:33:03.158Z,95575.98
2019-02-18T21:38:09.383Z,95585.63
2019-02-18T21:43:17.347Z,95588.16
2019-02-18T21:48:35.242Z,95583.17
2019-02-18T21:51:04.472Z,95587.48
2019-02-18T21:53:35.146Z,95584.12
2019-02-18T21:56:05.438Z,95582.44
2019-02-18T22:00:49.743Z,95582.34
2019-02-18T22:03:19.366Z,95582.78
2019-02-18T22:08:26.201Z,95582.59
2019-02-18T22:10:56.692Z,95583.80
2019-02-18T22:16:01.581Z,95580.39
2019-02-18T22:18:31.181Z,95582.64
2019-02-18T22:21:01.840Z,95580.08
2019-02-18T22:23:31.606Z,95580.87
2019-02-18T22:26:00.769Z,95586.90
2019-02-18T22:28:31.866Z,95582.64
2019-02-18T22:31:01.161Z,95585.64
2019-02-18T22:33:33.073Z,95577.76
2019-02-18T22:36:02.183Z,95576.00
2019-02-18T22:38:42.705Z,95576.27
2019-02-18T22:41:12.781Z,95574.88
2019-02-18T22:43:41.966Z,95581.60
2019-02-18T22:46:11.134Z,95584.41
2019-02-18T22:48:40.243Z,95581.11
2019-02-18T22:51:09.313Z,95582.59
2019-02-18T22:53:39.018Z,95589.34
2019-02-18T22:56:08.119Z,95586.77
2019-02-18T22:58:39.339Z,95581.00
2019-02-18T23:01:08.773Z,95582.26
2019-02-18T23:03:46.479Z,95588.70
2019-02-18T23:08:55.886Z,95582.12
2019-02-18T23:11:25.012Z,95586.02
2019-02-18T23:16:31.179Z,95584.91
2019-02-18T23:19:01.156Z,95588.67
2019-02-18T23:24:06.936Z,95599.58
2019-02-18T23:26:38.898Z,95594.30
2019-02-18T23:29:08.233Z,95601.55
2019-02-18T23:31:37.453Z,95606.39
2019-02-18T23:34:06.591Z,95610.42
2019-02-18T23:36:37.640Z,95610.52
2019-02-18T23:39:09.860Z,95610.94
2019-02-18T23:41:40.949Z,95608.56
2019-02-18T23:44:10.257Z,95607.95
2019-02-18T23:46:39.306Z,95607.83
2019-02-18T23:51:44.597Z,95610.38
2019-02-18T23:54:13.655Z,95607.83
2019-02-18T23:56:57.595Z,95612.99
